sensor_id;sensor_type;location;lat;lon;timestamp;temperature;humidity
52979;DHT22;63430;53.186;6.598;2023-04-03T00:00:15;1.80;99.90
52979;DHT22;63430;53.186;6.598;2023-04-03T00:02:18;1.80;99.90
52979;DHT22;63430;53.186;6.598;2023-04-03T00:04:21;1.80;99.90
52979;DHT22;63430;53.186;6.598;2023-04-03T00:06:27;1.80;99.90
52979;DHT22;63430;53.186;6.598;2023-04-03T00:08:29;1.80;99.90
52979;DHT22;63430;53.186;6.598;2023-04-03T00:10:37;2.10;99.90
52979;DHT22;63430;53.186;6.598;2023-04-03T00:12:40;1.80;99.90
52979;DHT22;63430;53.186;6.598;2023-04-03T00:14:43;1.80;99.90
52979;DHT22;63430;53.186;6.598;2023-04-03T00:16:46;1.80;99.90
52979;DHT22;63430;53.186;6.598;2023-04-03T00:18:49;1.80;99.90
52979;DHT22;63430;53.186;6.598;2023-04-03T00:20:52;1.80;99.90
52979;DHT22;63430;53.186;6.598;2023-04-03T00:22:54;1.70;99.90
52979;DHT22;63430;53.186;6.598;2023-04-03T00:24:57;1.80;99.90
52979;DHT22;63430;53.186;6.598;2023-04-03T00:27:03;1.80;99.90
52979;DHT22;63430;53.186;6.598;2023-04-03T00:29:06;1.80;99.90
52979;DHT22;63430;53.186;6.598;2023-04-03T00:31:14;1.80;99.90
52979;DHT22;63430;53.186;6.598;2023-04-03T00:33:18;1.80;99.90
52979;DHT22;63430;53.186;6.598;2023-04-03T00:35:24;1.80;99.90
52979;DHT22;63430;53.186;6.598;2023-04-03T00:37:27;1.80;99.90
52979;DHT22;63430;53.186;6.598;2023-04-03T00:39:30;1.80;99.90
52979;DHT22;63430;53.186;6.598;2023-04-03T00:41:33;1.80;99.90
52979;DHT22;63430;53.186;6.598;2023-04-03T00:43:42;1.80;99.90
52979;DHT22;63430;53.186;6.598;2023-04-03T00:45:45;1.80;99.90
52979;DHT22;63430;53.186;6.598;2023-04-03T00:47:49;1.90;99.90
52979;DHT22;63430;53.186;6.598;2023-04-03T00:49:52;1.80;99.90
52979;DHT22;63430;53.186;6.598;2023-04-03T00:51:56;1.80;99.90
52979;DHT22;63430;53.186;6.598;2023-04-03T00:54:03;1.80;99.90
52979;DHT22;63430;53.186;6.598;2023-04-03T00:56:10;1.30;99.90
52979;DHT22;63430;53.186;6.598;2023-04-03T00:58:15;1.70;99.90
52979;DHT22;63430;53.186;6.598;2023-04-03T01:00:22;1.70;99.90
52979;DHT22;63430;53.186;6.598;2023-04-03T01:02:30;1.70;99.90
52979;DHT22;63430;53.186;6.598;2023-04-03T01:04:35;1.70;99.90
52979;DHT22;63430;53.186;6.598;2023-04-03T01:06:39;1.70;99.90
52979;DHT22;63430;53.186;6.598;2023-04-03T01:08:43;1.70;99.90
52979;DHT22;63430;53.186;6.598;2023-04-03T01:10:50;1.70;99.90
52979;DHT22;63430;53.186;6.598;2023-04-03T01:12:54;1.60;99.90
52979;DHT22;63430;53.186;6.598;2023-04-03T01:14:59;1.50;99.90
52979;DHT22;63430;53.186;6.598;2023-04-03T01:17:29;1.60;99.90
52979;DHT22;63430;53.186;6.598;2023-04-03T01:19:39;3.70;99.90
52979;DHT22;63430;53.186;6.598;2023-04-03T01:22:05;1.60;99.90
52979;DHT22;63430;53.186;6.598;2023-04-03T01:24:32;1.50;99.90
52979;DHT22;63430;53.186;6.598;2023-04-03T01:26:38;1.60;99.90
52979;DHT22;63430;53.186;6.598;2023-04-03T01:28:41;1.50;99.90
52979;DHT22;63430;53.186;6.598;2023-04-03T01:30:48;1.50;99.90
52979;DHT22;63430;53.186;6.598;2023-04-03T01:32:57;2.10;99.90
52979;DHT22;63430;53.186;6.598;2023-04-03T01:35:00;1.50;99.90
52979;DHT22;63430;53.186;6.598;2023-04-03T01:37:02;1.50;99.90
52979;DHT22;63430;53.186;6.598;2023-04-03T01:39:05;1.50;99.90
52979;DHT22;63430;53.186;6.598;2023-04-03T01:41:09;1.40;99.90
52979;DHT22;63430;53.186;6.598;2023-04-03T01:43:13;1.40;99.90
52979;DHT22;63430;53.186;6.598;2023-04-03T01:45:16;1.40;99.90
52979;DHT22;63430;53.186;6.598;2023-04-03T01:47:22;1.40;99.90
52979;DHT22;63430;53.186;6.598;2023-04-03T01:49:28;1.40;99.90
52979;DHT22;63430;53.186;6.598;2023-04-03T01:51:31;1.40;99.90
52979;DHT22;63430;53.186;6.598;2023-04-03T01:53:35;1.40;99.90
52979;DHT22;63430;53.186;6.598;2023-04-03T01:55:38;1.30;99.90
52979;DHT22;63430;53.186;6.598;2023-04-03T01:57:40;1.40;99.90
52979;DHT22;63430;53.186;6.598;2023-04-03T01:59:43;1.30;99.90
52979;DHT22;63430;53.186;6.598;2023-04-03T02:01:49;1.30;99.90
52979;DHT22;63430;53.186;6.598;2023-04-03T02:03:52;1.30;99.90
52979;DHT22;63430;53.186;6.598;2023-04-03T02:05:59;1.30;99.90
52979;DHT22;63430;53.186;6.598;2023-04-03T02:08:02;1.30;99.90
52979;DHT22;63430;53.186;6.598;2023-04-03T02:10:05;1.20;99.90
52979;DHT22;63430;53.186;6.598;2023-04-03T02:12:08;1.20;99.90
52979;DHT22;63430;53.186;6.598;2023-04-03T02:14:11;1.20;99.90
52979;DHT22;63430;53.186;6.598;2023-04-03T02:16:14;1.10;99.90
52979;DHT22;63430;53.186;6.598;2023-04-03T02:18:18;2.20;99.90
52979;DHT22;63430;53.186;6.598;2023-04-03T02:20:21;1.10;99.90
52979;DHT22;63430;53.186;6.598;2023-04-03T02:22:26;1.00;99.90
52979;DHT22;63430;53.186;6.598;2023-04-03T02:24:29;1.00;99.90
52979;DHT22;63430;53.186;6.598;2023-04-03T02:26:34;0.90;99.90
52979;DHT22;63430;53.186;6.598;2023-04-03T02:28:40;0.90;99.90
52979;DHT22;63430;53.186;6.598;2023-04-03T02:30:43;0.80;99.90
52979;DHT22;63430;53.186;6.598;2023-04-03T02:32:46;0.80;99.90
52979;DHT22;63430;53.186;6.598;2023-04-03T02:34:49;0.80;99.90
52979;DHT22;63430;53.186;6.598;2023-04-03T02:36:52;0.70;99.90
52979;DHT22;63430;53.186;6.598;2023-04-03T02:38:58;0.70;99.90
52979;DHT22;63430;53.186;6.598;2023-04-03T02:41:01;0.70;99.90
52979;DHT22;63430;53.186;6.598;2023-04-03T02:43:08;0.70;99.90
52979;DHT22;63430;53.186;6.598;2023-04-03T02:45:12;0.60;99.90
52979;DHT22;63430;53.186;6.598;2023-04-03T02:47:16;0.60;99.90
52979;DHT22;63430;53.186;6.598;2023-04-03T02:49:19;0.60;99.90
52979;DHT22;63430;53.186;6.598;2023-04-03T02:51:21;0.50;99.90
52979;DHT22;63430;53.186;6.598;2023-04-03T02:53:27;0.50;99.90
52979;DHT22;63430;53.186;6.598;2023-04-03T02:55:32;0.50;99.90
52979;DHT22;63430;53.186;6.598;2023-04-03T02:57:34;1.50;99.90
52979;DHT22;63430;53.186;6.598;2023-04-03T02:59:38;0.40;99.90
52979;DHT22;63430;53.186;6.598;2023-04-03T03:01:45;0.40;99.90
52979;DHT22;63430;53.186;6.598;2023-04-03T03:03:48;0.40;99.90
52979;DHT22;63430;53.186;6.598;2023-04-03T03:06:01;0.30;99.90
52979;DHT22;63430;53.186;6.598;2023-04-03T03:08:14;0.30;99.90
52979;DHT22;63430;53.186;6.598;2023-04-03T03:10:17;0.30;99.90
52979;DHT22;63430;53.186;6.598;2023-04-03T03:12:24;0.30;99.90
52979;DHT22;63430;53.186;6.598;2023-04-03T03:14:31;0.50;99.90
52979;DHT22;63430;53.186;6.598;2023-04-03T03:16:33;0.50;99.90
52979;DHT22;63430;53.186;6.598;2023-04-03T03:18:36;0.20;99.90
52979;DHT22;63430;53.186;6.598;2023-04-03T03:20:39;0.20;99.90
52979;DHT22;63430;53.186;6.598;2023-04-03T03:22:41;0.20;99.90
52979;DHT22;63430;53.186;6.598;2023-04-03T03:24:44;0.20;99.90
52979;DHT22;63430;53.186;6.598;2023-04-03T03:26:47;0.10;99.90
52979;DHT22;63430;53.186;6.598;2023-04-03T03:28:52;0.10;99.90
52979;DHT22;63430;53.186;6.598;2023-04-03T03:31:00;0.00;99.90
52979;DHT22;63430;53.186;6.598;2023-04-03T03:33:04;1.10;99.90
52979;DHT22;63430;53.186;6.598;2023-04-03T03:35:08;0.00;99.90
52979;DHT22;63430;53.186;6.598;2023-04-03T03:37:11;-0.10;99.90
52979;DHT22;63430;53.186;6.598;2023-04-03T03:39:14;-0.10;99.90
52979;DHT22;63430;53.186;6.598;2023-04-03T03:41:17;-0.20;99.90
52979;DHT22;63430;53.186;6.598;2023-04-03T03:43:20;-0.20;99.90
52979;DHT22;63430;53.186;6.598;2023-04-03T03:45:27;-0.20;99.90
52979;DHT22;63430;53.186;6.598;2023-04-03T03:47:31;-0.20;99.90
52979;DHT22;63430;53.186;6.598;2023-04-03T03:49:34;-0.20;99.90
52979;DHT22;63430;53.186;6.598;2023-04-03T03:51:37;-0.10;99.90
52979;DHT22;63430;53.186;6.598;2023-04-03T03:53:41;-0.10;99.90
52979;DHT22;63430;53.186;6.598;2023-04-03T03:55:48;-0.10;99.90
52979;DHT22;63430;53.186;6.598;2023-04-03T03:57:53;-0.10;99.90
52979;DHT22;63430;53.186;6.598;2023-04-03T03:59:57;-0.10;99.90
52979;DHT22;63430;53.186;6.598;2023-04-03T04:02:02;-0.10;99.90
52979;DHT22;63430;53.186;6.598;2023-04-03T04:04:05;-0.10;99.90
52979;DHT22;63430;53.186;6.598;2023-04-03T04:06:09;-0.20;99.90
52979;DHT22;63430;53.186;6.598;2023-04-03T04:08:12;-0.20;99.90
52979;DHT22;63430;53.186;6.598;2023-04-03T04:10:15;-0.20;99.90
52979;DHT22;63430;53.186;6.598;2023-04-03T04:12:20;-0.20;99.90
52979;DHT22;63430;53.186;6.598;2023-04-03T04:14:23;-0.20;99.90
52979;DHT22;63430;53.186;6.598;2023-04-03T04:16:26;-0.20;99.90
52979;DHT22;63430;53.186;6.598;2023-04-03T04:18:33;-0.20;99.90
52979;DHT22;63430;53.186;6.598;2023-04-03T04:20:36;-0.20;99.90
52979;DHT22;63430;53.186;6.598;2023-04-03T04:22:39;-0.20;99.90
52979;DHT22;63430;53.186;6.598;2023-04-03T04:24:41;-0.10;99.90
52979;DHT22;63430;53.186;6.598;2023-04-03T04:26:44;-0.10;99.90
52979;DHT22;63430;53.186;6.598;2023-04-03T04:28:48;-0.20;99.90
52979;DHT22;63430;53.186;6.598;2023-04-03T04:30:53;-0.10;99.90
52979;DHT22;63430;53.186;6.598;2023-04-03T04:32:59;-0.10;99.90
52979;DHT22;63430;53.186;6.598;2023-04-03T04:35:05;-0.10;99.90
52979;DHT22;63430;53.186;6.598;2023-04-03T04:37:13;-0.10;99.90
52979;DHT22;63430;53.186;6.598;2023-04-03T04:39:16;-0.20;99.90
52979;DHT22;63430;53.186;6.598;2023-04-03T04:41:19;-0.20;99.90
52979;DHT22;63430;53.186;6.598;2023-04-03T04:43:24;-0.30;99.90
52979;DHT22;63430;53.186;6.598;2023-04-03T04:45:28;-0.30;99.90
52979;DHT22;63430;53.186;6.598;2023-04-03T04:47:31;-0.40;99.90
52979;DHT22;63430;53.186;6.598;2023-04-03T04:49:35;-0.40;99.90
52979;DHT22;63430;53.186;6.598;2023-04-03T04:51:41;-0.40;99.90
52979;DHT22;63430;53.186;6.598;2023-04-03T04:53:57;-0.40;99.90
52979;DHT22;63430;53.186;6.598;2023-04-03T04:56:01;-0.50;99.90
52979;DHT22;63430;53.186;6.598;2023-04-03T04:58:05;-0.50;99.90
52979;DHT22;63430;53.186;6.598;2023-04-03T05:00:10;-0.50;99.90
52979;DHT22;63430;53.186;6.598;2023-04-03T05:02:13;-0.60;99.90
52979;DHT22;63430;53.186;6.598;2023-04-03T05:04:18;-0.60;99.90
52979;DHT22;63430;53.186;6.598;2023-04-03T05:06:25;-0.60;99.90
52979;DHT22;63430;53.186;6.598;2023-04-03T05:08:40;-0.60;99.90
52979;DHT22;63430;53.186;6.598;2023-04-03T05:10:46;-0.70;99.90
52979;DHT22;63430;53.186;6.598;2023-04-03T05:12:51;-0.70;99.90
52979;DHT22;63430;53.186;6.598;2023-04-03T05:14:54;-0.70;99.90
52979;DHT22;63430;53.186;6.598;2023-04-03T05:16:57;-0.70;99.90
52979;DHT22;63430;53.186;6.598;2023-04-03T05:19:03;-0.60;99.90
52979;DHT22;63430;53.186;6.598;2023-04-03T05:21:06;-0.60;99.90
52979;DHT22;63430;53.186;6.598;2023-04-03T05:23:12;-0.60;99.90
52979;DHT22;63430;53.186;6.598;2023-04-03T05:25:20;-0.50;99.90
52979;DHT22;63430;53.186;6.598;2023-04-03T05:27:23;-0.50;99.90
52979;DHT22;63430;53.186;6.598;2023-04-03T05:29:29;-0.50;99.90
52979;DHT22;63430;53.186;6.598;2023-04-03T05:31:34;-0.50;99.90
52979;DHT22;63430;53.186;6.598;2023-04-03T05:33:41;-0.40;99.90
52979;DHT22;63430;53.186;6.598;2023-04-03T05:35:49;-0.40;99.90
52979;DHT22;63430;53.186;6.598;2023-04-03T05:37:58;-0.40;99.90
52979;DHT22;63430;53.186;6.598;2023-04-03T05:40:02;-0.30;99.90
52979;DHT22;63430;53.186;6.598;2023-04-03T05:42:08;-0.30;99.90
52979;DHT22;63430;53.186;6.598;2023-04-03T05:44:11;-0.20;99.90
52979;DHT22;63430;53.186;6.598;2023-04-03T05:46:16;-0.20;99.90
52979;DHT22;63430;53.186;6.598;2023-04-03T05:48:35;-0.20;99.90
52979;DHT22;63430;53.186;6.598;2023-04-03T05:50:40;-0.10;99.90
52979;DHT22;63430;53.186;6.598;2023-04-03T05:52:50;0.00;99.90
52979;DHT22;63430;53.186;6.598;2023-04-03T05:54:53;0.00;99.90
52979;DHT22;63430;53.186;6.598;2023-04-03T05:57:00;0.10;99.90
52979;DHT22;63430;53.186;6.598;2023-04-03T05:59:06;0.20;99.90
52979;DHT22;63430;53.186;6.598;2023-04-03T06:01:10;0.20;99.90
52979;DHT22;63430;53.186;6.598;2023-04-03T06:03:13;0.30;99.90
52979;DHT22;63430;53.186;6.598;2023-04-03T06:05:16;0.40;99.90
52979;DHT22;63430;53.186;6.598;2023-04-03T06:07:22;1.60;99.90
52979;DHT22;63430;53.186;6.598;2023-04-03T06:09:27;0.60;99.90
52979;DHT22;63430;53.186;6.598;2023-04-03T06:11:31;0.60;99.90
52979;DHT22;63430;53.186;6.598;2023-04-03T06:13:34;0.70;99.90
52979;DHT22;63430;53.186;6.598;2023-04-03T06:15:40;0.80;99.90
52979;DHT22;63430;53.186;6.598;2023-04-03T06:17:43;0.90;99.90
52979;DHT22;63430;53.186;6.598;2023-04-03T06:19:46;1.00;99.90
52979;DHT22;63430;53.186;6.598;2023-04-03T06:21:50;1.10;99.90
52979;DHT22;63430;53.186;6.598;2023-04-03T06:23:52;1.20;99.90
52979;DHT22;63430;53.186;6.598;2023-04-03T06:25:57;1.30;99.90
52979;DHT22;63430;53.186;6.598;2023-04-03T06:28:12;1.40;99.90
52979;DHT22;63430;53.186;6.598;2023-04-03T06:30:15;1.50;99.90
52979;DHT22;63430;53.186;6.598;2023-04-03T06:32:20;1.60;99.90
52979;DHT22;63430;53.186;6.598;2023-04-03T06:34:25;1.70;99.90
52979;DHT22;63430;53.186;6.598;2023-04-03T06:36:28;1.70;99.90
52979;DHT22;63430;53.186;6.598;2023-04-03T06:38:32;1.90;99.90
52979;DHT22;63430;53.186;6.598;2023-04-03T06:40:35;1.90;99.90
52979;DHT22;63430;53.186;6.598;2023-04-03T06:42:38;2.00;99.90
52979;DHT22;63430;53.186;6.598;2023-04-03T06:44:45;2.10;99.90
52979;DHT22;63430;53.186;6.598;2023-04-03T06:46:47;2.20;99.90
52979;DHT22;63430;53.186;6.598;2023-04-03T06:48:53;2.30;99.90
52979;DHT22;63430;53.186;6.598;2023-04-03T06:50:56;2.30;99.90
52979;DHT22;63430;53.186;6.598;2023-04-03T06:52:58;2.40;99.90
52979;DHT22;63430;53.186;6.598;2023-04-03T06:55:01;2.50;99.90
52979;DHT22;63430;53.186;6.598;2023-04-03T06:57:04;2.60;99.90
52979;DHT22;63430;53.186;6.598;2023-04-03T06:59:06;2.70;99.90
52979;DHT22;63430;53.186;6.598;2023-04-03T07:01:09;2.70;99.90
52979;DHT22;63430;53.186;6.598;2023-04-03T07:03:12;2.80;99.90
52979;DHT22;63430;53.186;6.598;2023-04-03T07:05:18;2.90;99.90
52979;DHT22;63430;53.186;6.598;2023-04-03T07:07:20;2.90;99.90
52979;DHT22;63430;53.186;6.598;2023-04-03T07:09:23;3.00;99.90
52979;DHT22;63430;53.186;6.598;2023-04-03T07:11:27;3.00;99.90
52979;DHT22;63430;53.186;6.598;2023-04-03T07:13:30;3.10;99.90
52979;DHT22;63430;53.186;6.598;2023-04-03T07:15:33;3.20;99.90
52979;DHT22;63430;53.186;6.598;2023-04-03T07:17:42;3.20;99.90
52979;DHT22;63430;53.186;6.598;2023-04-03T07:19:44;3.30;99.90
52979;DHT22;63430;53.186;6.598;2023-04-03T07:21:50;3.30;99.90
52979;DHT22;63430;53.186;6.598;2023-04-03T07:23:53;3.40;99.90
52979;DHT22;63430;53.186;6.598;2023-04-03T07:25:56;3.40;99.90
52979;DHT22;63430;53.186;6.598;2023-04-03T07:27:59;3.50;99.90
52979;DHT22;63430;53.186;6.598;2023-04-03T07:30:02;3.50;99.90
52979;DHT22;63430;53.186;6.598;2023-04-03T07:32:05;3.60;99.90
52979;DHT22;63430;53.186;6.598;2023-04-03T07:34:09;3.70;99.90
52979;DHT22;63430;53.186;6.598;2023-04-03T07:36:15;3.70;99.90
52979;DHT22;63430;53.186;6.598;2023-04-03T07:38:21;3.70;99.90
52979;DHT22;63430;53.186;6.598;2023-04-03T07:40:25;3.80;99.90
52979;DHT22;63430;53.186;6.598;2023-04-03T07:42:28;3.90;99.90
52979;DHT22;63430;53.186;6.598;2023-04-03T07:44:30;3.90;99.90
52979;DHT22;63430;53.186;6.598;2023-04-03T07:46:33;3.90;99.90
52979;DHT22;63430;53.186;6.598;2023-04-03T07:48:39;4.00;99.90
52979;DHT22;63430;53.186;6.598;2023-04-03T07:50:41;4.00;99.90
52979;DHT22;63430;53.186;6.598;2023-04-03T07:52:44;4.10;99.90
52979;DHT22;63430;53.186;6.598;2023-04-03T07:54:50;4.20;99.90
52979;DHT22;63430;53.186;6.598;2023-04-03T07:56:53;4.20;99.90
52979;DHT22;63430;53.186;6.598;2023-04-03T07:58:55;4.30;99.90
52979;DHT22;63430;53.186;6.598;2023-04-03T08:00:58;4.40;99.90
52979;DHT22;63430;53.186;6.598;2023-04-03T08:03:00;4.40;99.90
52979;DHT22;63430;53.186;6.598;2023-04-03T08:05:04;4.50;99.90
52979;DHT22;63430;53.186;6.598;2023-04-03T08:07:07;4.60;99.90
52979;DHT22;63430;53.186;6.598;2023-04-03T08:09:10;4.60;99.90
52979;DHT22;63430;53.186;6.598;2023-04-03T08:11:15;4.70;99.90
52979;DHT22;63430;53.186;6.598;2023-04-03T08:13:18;4.80;99.90
52979;DHT22;63430;53.186;6.598;2023-04-03T08:15:21;4.90;99.90
52979;DHT22;63430;53.186;6.598;2023-04-03T08:17:24;5.00;99.90
52979;DHT22;63430;53.186;6.598;2023-04-03T08:19:27;5.10;99.90
52979;DHT22;63430;53.186;6.598;2023-04-03T08:21:29;5.20;99.90
52979;DHT22;63430;53.186;6.598;2023-04-03T08:23:32;5.30;99.90
52979;DHT22;63430;53.186;6.598;2023-04-03T08:25:37;6.20;99.90
52979;DHT22;63430;53.186;6.598;2023-04-03T08:27:43;5.40;99.90
52979;DHT22;63430;53.186;6.598;2023-04-03T08:29:45;5.30;99.90
52979;DHT22;63430;53.186;6.598;2023-04-03T08:31:48;5.60;99.90
52979;DHT22;63430;53.186;6.598;2023-04-03T08:33:52;5.80;99.90
52979;DHT22;63430;53.186;6.598;2023-04-03T08:35:54;5.70;99.90
52979;DHT22;63430;53.186;6.598;2023-04-03T08:37:57;5.70;99.90
52979;DHT22;63430;53.186;6.598;2023-04-03T08:40:00;5.80;99.90
52979;DHT22;63430;53.186;6.598;2023-04-03T08:42:07;5.80;99.90
52979;DHT22;63430;53.186;6.598;2023-04-03T08:44:24;5.90;99.90
52979;DHT22;63430;53.186;6.598;2023-04-03T08:46:40;5.90;99.90
52979;DHT22;63430;53.186;6.598;2023-04-03T08:48:45;5.80;99.90
52979;DHT22;63430;53.186;6.598;2023-04-03T08:50:51;5.80;99.90
52979;DHT22;63430;53.186;6.598;2023-04-03T08:52:58;5.90;99.90
52979;DHT22;63430;53.186;6.598;2023-04-03T08:55:02;5.90;99.90
52979;DHT22;63430;53.186;6.598;2023-04-03T08:57:06;6.00;99.90
52979;DHT22;63430;53.186;6.598;2023-04-03T08:59:13;6.20;99.90
52979;DHT22;63430;53.186;6.598;2023-04-03T09:01:27;6.30;99.90
52979;DHT22;63430;53.186;6.598;2023-04-03T09:03:34;6.50;99.90
52979;DHT22;63430;53.186;6.598;2023-04-03T09:05:41;6.50;99.90
52979;DHT22;63430;53.186;6.598;2023-04-03T09:07:49;6.70;99.90
52979;DHT22;63430;53.186;6.598;2023-04-03T09:09:53;6.80;99.90
52979;DHT22;63430;53.186;6.598;2023-04-03T09:12:03;6.90;99.90
52979;DHT22;63430;53.186;6.598;2023-04-03T09:14:15;7.00;99.90
52979;DHT22;63430;53.186;6.598;2023-04-03T09:16:32;7.00;99.90
52979;DHT22;63430;53.186;6.598;2023-04-03T09:18:43;7.10;99.90
52979;DHT22;63430;53.186;6.598;2023-04-03T09:20:59;7.20;99.90
52979;DHT22;63430;53.186;6.598;2023-04-03T09:23:15;7.40;99.90
52979;DHT22;63430;53.186;6.598;2023-04-03T09:25:22;7.40;95.90
52979;DHT22;63430;53.186;6.598;2023-04-03T09:27:25;7.50;99.50
52979;DHT22;63430;53.186;6.598;2023-04-03T09:29:28;7.60;98.60
52979;DHT22;63430;53.186;6.598;2023-04-03T09:31:40;7.70;97.60
52979;DHT22;63430;53.186;6.598;2023-04-03T09:33:44;7.80;95.40
52979;DHT22;63430;53.186;6.598;2023-04-03T09:35:48;7.90;96.00
52979;DHT22;63430;53.186;6.598;2023-04-03T09:37:52;8.00;97.00
52979;DHT22;63430;53.186;6.598;2023-04-03T09:39:55;8.20;97.20
52979;DHT22;63430;53.186;6.598;2023-04-03T09:42:00;8.30;96.80
52979;DHT22;63430;53.186;6.598;2023-04-03T09:44:21;8.40;95.90
52979;DHT22;63430;53.186;6.598;2023-04-03T09:46:30;8.50;92.50
52979;DHT22;63430;53.186;6.598;2023-04-03T09:48:36;8.60;93.80
52979;DHT22;63430;53.186;6.598;2023-04-03T09:50:41;8.70;91.80
52979;DHT22;63430;53.186;6.598;2023-04-03T09:53:07;8.60;89.20
52979;DHT22;63430;53.186;6.598;2023-04-03T09:55:15;8.70;86.00
52979;DHT22;63430;53.186;6.598;2023-04-03T09:57:18;8.70;81.40
52979;DHT22;63430;53.186;6.598;2023-04-03T09:59:21;8.80;82.00
52979;DHT22;63430;53.186;6.598;2023-04-03T10:01:27;8.90;74.70
52979;DHT22;63430;53.186;6.598;2023-04-03T10:03:32;9.00;77.70
52979;DHT22;63430;53.186;6.598;2023-04-03T10:05:39;9.20;80.60
52979;DHT22;63430;53.186;6.598;2023-04-03T10:07:43;9.20;76.70
52979;DHT22;63430;53.186;6.598;2023-04-03T10:09:56;9.30;82.10
52979;DHT22;63430;53.186;6.598;2023-04-03T10:12:01;9.30;73.20
52979;DHT22;63430;53.186;6.598;2023-04-03T10:14:22;9.30;70.70
52979;DHT22;63430;53.186;6.598;2023-04-03T10:16:27;9.40;69.20
52979;DHT22;63430;53.186;6.598;2023-04-03T10:19:43;9.40;66.40
52979;DHT22;63430;53.186;6.598;2023-04-03T10:21:55;9.60;66.80
52979;DHT22;63430;53.186;6.598;2023-04-03T10:24:08;9.70;68.10
52979;DHT22;63430;53.186;6.598;2023-04-03T10:26:20;9.70;65.70
52979;DHT22;63430;53.186;6.598;2023-04-03T10:28:31;9.80;64.20
52979;DHT22;63430;53.186;6.598;2023-04-03T10:30:42;9.90;64.20
52979;DHT22;63430;53.186;6.598;2023-04-03T10:32:55;9.80;59.90
52979;DHT22;63430;53.186;6.598;2023-04-03T10:35:06;9.90;59.00
52979;DHT22;63430;53.186;6.598;2023-04-03T10:37:18;9.90;57.10
52979;DHT22;63430;53.186;6.598;2023-04-03T10:39:27;9.90;56.80
52979;DHT22;63430;53.186;6.598;2023-04-03T10:41:40;9.90;57.40
52979;DHT22;63430;53.186;6.598;2023-04-03T10:43:54;9.90;57.10
52979;DHT22;63430;53.186;6.598;2023-04-03T10:46:04;10.00;55.90
52979;DHT22;63430;53.186;6.598;2023-04-03T10:48:17;10.20;60.00
52979;DHT22;63430;53.186;6.598;2023-04-03T10:50:31;10.30;54.70
52979;DHT22;63430;53.186;6.598;2023-04-03T10:52:46;10.30;56.10
52979;DHT22;63430;53.186;6.598;2023-04-03T10:54:59;10.30;55.10
52979;DHT22;63430;53.186;6.598;2023-04-03T10:57:05;10.60;54.40
52979;DHT22;63430;53.186;6.598;2023-04-03T10:59:23;10.30;53.00
52979;DHT22;63430;53.186;6.598;2023-04-03T11:01:31;10.30;54.50
52979;DHT22;63430;53.186;6.598;2023-04-03T11:03:38;10.50;55.00
52979;DHT22;63430;53.186;6.598;2023-04-03T11:05:44;10.50;50.40
52979;DHT22;63430;53.186;6.598;2023-04-03T11:07:53;10.50;52.00
52979;DHT22;63430;53.186;6.598;2023-04-03T11:10:02;10.60;46.30
52979;DHT22;63430;53.186;6.598;2023-04-03T11:12:11;10.60;49.10
52979;DHT22;63430;53.186;6.598;2023-04-03T11:14:20;10.50;47.90
52979;DHT22;63430;53.186;6.598;2023-04-03T11:16:27;10.50;48.60
52979;DHT22;63430;53.186;6.598;2023-04-03T11:18:37;10.60;50.50
52979;DHT22;63430;53.186;6.598;2023-04-03T11:20:46;10.70;46.80
52979;DHT22;63430;53.186;6.598;2023-04-03T11:22:57;10.70;47.60
52979;DHT22;63430;53.186;6.598;2023-04-03T11:25:05;10.70;46.60
52979;DHT22;63430;53.186;6.598;2023-04-03T11:27:14;10.70;48.40
52979;DHT22;63430;53.186;6.598;2023-04-03T11:29:20;10.80;47.90
52979;DHT22;63430;53.186;6.598;2023-04-03T11:31:47;10.80;46.70
52979;DHT22;63430;53.186;6.598;2023-04-03T11:34:10;10.70;47.00
52979;DHT22;63430;53.186;6.598;2023-04-03T11:36:19;10.80;47.80
52979;DHT22;63430;53.186;6.598;2023-04-03T11:38:41;10.80;46.10
52979;DHT22;63430;53.186;6.598;2023-04-03T11:40:45;10.70;45.40
52979;DHT22;63430;53.186;6.598;2023-04-03T11:42:49;10.70;46.70
52979;DHT22;63430;53.186;6.598;2023-04-03T11:45:23;10.80;47.20
52979;DHT22;63430;53.186;6.598;2023-04-03T11:47:47;10.90;44.60
52979;DHT22;63430;53.186;6.598;2023-04-03T11:49:59;10.90;44.40
52979;DHT22;63430;53.186;6.598;2023-04-03T11:52:02;10.90;45.70
52979;DHT22;63430;53.186;6.598;2023-04-03T11:54:43;11.00;45.00
52979;DHT22;63430;53.186;6.598;2023-04-03T11:56:47;11.10;46.20
52979;DHT22;63430;53.186;6.598;2023-04-03T11:59:21;11.30;46.10
52979;DHT22;63430;53.186;6.598;2023-04-03T12:01:42;11.40;45.70
52979;DHT22;63430;53.186;6.598;2023-04-03T12:04:07;11.40;45.80
52979;DHT22;63430;53.186;6.598;2023-04-03T12:06:47;11.40;45.60
52979;DHT22;63430;53.186;6.598;2023-04-03T12:08:53;11.50;45.40
52979;DHT22;63430;53.186;6.598;2023-04-03T12:11:19;11.30;45.80
52979;DHT22;63430;53.186;6.598;2023-04-03T12:13:25;11.30;45.40
52979;DHT22;63430;53.186;6.598;2023-04-03T12:15:50;11.20;45.50
52979;DHT22;63430;53.186;6.598;2023-04-03T12:17:53;11.10;43.50
52979;DHT22;63430;53.186;6.598;2023-04-03T12:19:56;11.10;45.30
52979;DHT22;63430;53.186;6.598;2023-04-03T12:22:19;11.10;46.20
52979;DHT22;63430;53.186;6.598;2023-04-03T12:24:26;11.20;46.50
52979;DHT22;63430;53.186;6.598;2023-04-03T12:26:38;11.30;46.60
52979;DHT22;63430;53.186;6.598;2023-04-03T12:28:50;11.40;46.50
52979;DHT22;63430;53.186;6.598;2023-04-03T12:30:55;11.30;45.70
52979;DHT22;63430;53.186;6.598;2023-04-03T12:33:20;11.30;45.70
52979;DHT22;63430;53.186;6.598;2023-04-03T12:35:31;11.30;45.30
52979;DHT22;63430;53.186;6.598;2023-04-03T12:37:57;11.40;46.40
52979;DHT22;63430;53.186;6.598;2023-04-03T12:40:15;11.40;45.70
52979;DHT22;63430;53.186;6.598;2023-04-03T12:44:56;11.40;45.50
52979;DHT22;63430;53.186;6.598;2023-04-03T12:47:02;11.50;45.50
52979;DHT22;63430;53.186;6.598;2023-04-03T12:49:26;11.50;44.70
52979;DHT22;63430;53.186;6.598;2023-04-03T12:51:37;11.60;44.80
52979;DHT22;63430;53.186;6.598;2023-04-03T12:53:40;11.50;44.60
52979;DHT22;63430;53.186;6.598;2023-04-03T12:55:44;11.60;44.90
52979;DHT22;63430;53.186;6.598;2023-04-03T12:57:49;11.50;44.90
52979;DHT22;63430;53.186;6.598;2023-04-03T12:59:52;11.40;44.30
52979;DHT22;63430;53.186;6.598;2023-04-03T13:01:55;11.40;43.90
52979;DHT22;63430;53.186;6.598;2023-04-03T13:04:01;11.50;44.50
52979;DHT22;63430;53.186;6.598;2023-04-03T13:06:04;11.50;44.00
52979;DHT22;63430;53.186;6.598;2023-04-03T13:08:11;11.50;44.10
52979;DHT22;63430;53.186;6.598;2023-04-03T13:10:16;11.60;44.30
52979;DHT22;63430;53.186;6.598;2023-04-03T13:12:19;11.60;44.80
52979;DHT22;63430;53.186;6.598;2023-04-03T13:14:29;11.70;45.20
52979;DHT22;63430;53.186;6.598;2023-04-03T13:16:33;11.70;44.70
52979;DHT22;63430;53.186;6.598;2023-04-03T13:18:37;11.70;45.10
52979;DHT22;63430;53.186;6.598;2023-04-03T13:20:40;11.70;44.90
52979;DHT22;63430;53.186;6.598;2023-04-03T13:22:48;11.60;44.00
52979;DHT22;63430;53.186;6.598;2023-04-03T13:24:53;11.60;43.70
52979;DHT22;63430;53.186;6.598;2023-04-03T13:26:56;11.70;44.40
52979;DHT22;63430;53.186;6.598;2023-04-03T13:29:02;11.60;43.70
52979;DHT22;63430;53.186;6.598;2023-04-03T13:31:18;11.50;42.50